Time;durP1;ratioP1;P1;durP2;ratioP2;P2;SDS_P1;SDS_P2;PMS_P1;PMS_P2;Temp;Humidity;BMP_temperature;BMP_pressure;BME280_temperature;BME280_humidity;BME280_pressure;Samples;Min_cycle;Max_cycle;Signal;HPM_P1;HPM_P2
2022/01/08 00:01:02;;;;;;;4.87;3.60;;;;;;;;;;5057379;28;20199;-76
2022/01/08 00:03:30;;;;;;;4.37;3.97;;;;;;;;;;5048039;28;20234;-78
2022/01/08 00:05:57;;;;;;;5.13;3.40;;;;;;;;;;5046711;28;20248;-77
2022/01/08 00:08:25;;;;;;;5.00;4.10;;;;;;;;;;5055145;28;20225;-77
2022/01/08 00:10:53;;;;;;;7.43;4.77;;;;;;;;;;5056420;28;20241;-77
2022/01/08 00:13:21;;;;;;;3.90;3.60;;;;;;;;;;5055629;28;20229;-78
2022/01/08 00:15:48;;;;;;;6.63;4.40;;;;;;;;;;5055687;28;20202;-78
2022/01/08 00:18:16;;;;;;;6.87;4.63;;;;;;;;;;5055580;28;20237;-77
2022/01/08 00:20:43;;;;;;;4.50;4.10;;;;;;;;;;5055572;28;20214;-77
2022/01/08 00:23:11;;;;;;;4.73;4.33;;;;;;;;;;5055211;28;20237;-78
2022/01/08 00:25:38;;;;;;;8.27;4.33;;;;;;;;;;5035758;28;20775;-77
2022/01/08 00:28:05;;;;;;;4.60;4.17;;;;;;;;;;5035865;28;20226;-78
2022/01/08 00:30:32;;;;;;;3.73;3.47;;;;;;;;;;5041946;28;20667;-78
2022/01/08 00:32:59;;;;;;;4.03;3.63;;;;;;;;;;5055891;28;20261;-78
2022/01/08 00:35:28;;;;;;;2.80;2.63;;;;;;;;;;5054041;28;20272;-77
2022/01/08 00:37:55;;;;;;;4.57;4.17;;;;;;;;;;5046405;28;20234;-76
2022/01/08 00:40:23;;;;;;;5.40;3.83;;;;;;;;;;5044092;28;20217;-77
2022/01/08 00:42:50;;;;;;;3.60;3.27;;;;;;;;;;5048309;28;20234;-76
2022/01/08 00:45:17;;;;;;;4.50;3.97;;;;;;;;;;5049527;28;20233;-77
2022/01/08 00:47:44;;;;;;;3.00;2.80;;;;;;;;;;5055994;28;20214;-76
2022/01/08 00:50:12;;;;;;;5.07;2.67;;;;;;;;;;5052477;28;20203;-76
2022/01/08 00:52:41;;;;;;;4.30;3.90;;;;;;;;;;5049848;28;20629;-77
2022/01/08 00:55:09;;;;;;;3.07;2.87;;;;;;;;;;5035908;28;20241;-76
2022/01/08 00:57:36;;;;;;;4.53;4.00;;;;;;;;;;5047596;28;20206;-77
2022/01/08 01:00:05;;;;;;;4.53;3.50;;;;;;;;;;5064599;28;20217;-76
2022/01/08 01:02:32;;;;;;;2.63;2.53;;;;;;;;;;5051775;28;20562;-77
2022/01/08 01:04:59;;;;;;;3.63;3.37;;;;;;;;;;5055142;28;20319;-76
2022/01/08 01:07:26;;;;;;;3.60;3.30;;;;;;;;;;5053823;28;20209;-77
2022/01/08 01:09:55;;;;;;;3.80;3.50;;;;;;;;;;5054913;28;20210;-76
2022/01/08 01:12:22;;;;;;;4.20;3.90;;;;;;;;;;5054619;28;20238;-78
2022/01/08 01:14:49;;;;;;;6.70;3.73;;;;;;;;;;5040514;28;20238;-76
2022/01/08 01:17:16;;;;;;;4.37;3.97;;;;;;;;;;5036281;28;20206;-78
2022/01/08 01:19:43;;;;;;;4.00;3.67;;;;;;;;;;5053346;28;20238;-77
2022/01/08 01:22:13;;;;;;;5.70;3.70;;;;;;;;;;5054543;28;20211;-77
2022/01/08 01:24:41;;;;;;;6.37;3.50;;;;;;;;;;5053974;28;20245;-77
2022/01/08 01:27:36;;;;;;;4.13;3.73;;;;;;;;;;5054761;28;20324;-78
2022/01/08 01:30:07;;;;;;;3.33;3.07;;;;;;;;;;5054174;28;20741;-76
2022/01/08 01:41:14;;;;;;;3.73;3.43;;;;;;;;;;5050546;28;20669;-78
2022/01/08 01:49:09;;;;;;;4.07;3.53;;;;;;;;;;5053845;28;20241;-76
2022/01/08 01:51:36;;;;;;;2.93;2.77;;;;;;;;;;5054263;28;20206;-76
2022/01/08 01:54:04;;;;;;;4.60;3.10;;;;;;;;;;5053969;28;20245;-76
2022/01/08 01:56:31;;;;;;;3.50;3.20;;;;;;;;;;5054501;28;20209;-78
2022/01/08 01:58:59;;;;;;;3.40;3.20;;;;;;;;;;5053882;28;20234;-77
2022/01/08 02:01:26;;;;;;;4.00;3.30;;;;;;;;;;5062826;28;20687;-76
2022/01/08 02:03:54;;;;;;;3.67;3.00;;;;;;;;;;5062428;28;20323;-77
2022/01/08 02:06:21;;;;;;;7.17;3.50;;;;;;;;;;5052155;28;20297;-78
2022/01/08 02:08:49;;;;;;;3.87;3.30;;;;;;;;;;5072121;28;20613;-76
2022/01/08 02:11:18;;;;;;;7.33;3.23;;;;;;;;;;5067553;28;20209;-77
2022/01/08 02:13:45;;;;;;;3.77;3.27;;;;;;;;;;5045757;28;20246;-76
2022/01/08 02:16:17;;;;;;;4.97;3.23;;;;;;;;;;5033648;28;20202;-77
2022/01/08 02:18:44;;;;;;;4.43;3.23;;;;;;;;;;5044126;28;20318;-77
2022/01/08 02:21:13;;;;;;;3.43;3.13;;;;;;;;;;5053396;28;20206;-76
2022/01/08 02:23:40;;;;;;;3.00;2.80;;;;;;;;;;5060113;28;20252;-77
2022/01/08 02:26:08;;;;;;;3.27;3.07;;;;;;;;;;5073524;28;20225;-76
2022/01/08 02:28:35;;;;;;;3.80;3.00;;;;;;;;;;5072938;28;20252;-76
2022/01/08 02:31:02;;;;;;;3.27;2.97;;;;;;;;;;5073627;28;20673;-78
2022/01/08 02:33:29;;;;;;;3.27;3.00;;;;;;;;;;5072712;28;20254;-77
2022/01/08 02:35:57;;;;;;;3.30;3.10;;;;;;;;;;5073284;28;20205;-77
2022/01/08 02:38:25;;;;;;;3.00;2.80;;;;;;;;;;5073464;28;20254;-78
2022/01/08 02:40:56;;;;;;;3.03;2.83;;;;;;;;;;5073853;28;20206;-77
2022/01/08 02:43:24;;;;;;;3.00;2.80;;;;;;;;;;5073271;28;20233;-77
2022/01/08 02:45:51;;;;;;;4.00;2.90;;;;;;;;;;5073614;28;20275;-76
2022/01/08 02:48:18;;;;;;;3.17;2.87;;;;;;;;;;5055362;28;20245;-78
2022/01/08 02:50:45;;;;;;;3.27;2.90;;;;;;;;;;5052423;28;20701;-77
2022/01/08 02:53:12;;;;;;;2.40;2.30;;;;;;;;;;5051996;28;20233;-78
2022/01/08 02:55:41;;;;;;;2.73;2.53;;;;;;;;;;5051670;28;20202;-77
2022/01/08 02:58:08;;;;;;;6.37;2.90;;;;;;;;;;5052317;28;20234;-76
2022/01/08 03:00:35;;;;;;;3.40;3.10;;;;;;;;;;5052696;28;20210;-79
2022/01/08 03:03:02;;;;;;;2.90;2.70;;;;;;;;;;5052100;28;20225;-77
2022/01/08 03:05:29;;;;;;;3.10;2.73;;;;;;;;;;5052187;28;20233;-78
2022/01/08 03:07:56;;;;;;;3.57;2.47;;;;;;;;;;5052970;28;20256;-77
2022/01/08 03:10:23;;;;;;;2.90;2.70;;;;;;;;;;5052853;28;20263;-78
2022/01/08 03:12:51;;;;;;;2.90;2.70;;;;;;;;;;5052731;28;20259;-77
2022/01/08 03:15:19;;;;;;;3.87;2.90;;;;;;;;;;5053074;28;20732;-77
2022/01/08 03:17:47;;;;;;;3.20;2.90;;;;;;;;;;5052077;28;20240;-77
2022/01/08 03:20:15;;;;;;;2.90;2.70;;;;;;;;;;5053325;28;20267;-77
2022/01/08 03:22:45;;;;;;;3.07;2.87;;;;;;;;;;5052516;28;20245;-77
2022/01/08 03:25:12;;;;;;;2.60;2.40;;;;;;;;;;5053203;28;20723;-77
2022/01/08 03:27:41;;;;;;;3.23;2.83;;;;;;;;;;5052371;28;20239;-78
2022/01/08 03:30:12;;;;;;;2.77;2.57;;;;;;;;;;5052998;28;20317;-76
2022/01/08 03:32:39;;;;;;;2.60;2.50;;;;;;;;;;5052001;28;20673;-77
2022/01/08 03:35:06;;;;;;;4.03;2.87;;;;;;;;;;5051988;28;20725;-78
2022/01/08 03:37:33;;;;;;;3.20;2.90;;;;;;;;;;5051485;28;20209;-77
2022/01/08 03:40:01;;;;;;;3.10;2.90;;;;;;;;;;5048377;28;20202;-77
2022/01/08 03:42:28;;;;;;;3.13;2.93;;;;;;;;;;5032394;28;20199;-77
2022/01/08 03:44:55;;;;;;;3.30;3.10;;;;;;;;;;5036884;28;20226;-77
2022/01/08 03:47:31;;;;;;;3.00;2.80;;;;;;;;;;5042400;28;20367;-77
2022/01/08 03:49:59;;;;;;;5.27;3.27;;;;;;;;;;5031915;28;20206;-76
2022/01/08 03:52:26;;;;;;;3.63;3.33;;;;;;;;;;5041119;28;20413;-76
2022/01/08 03:54:53;;;;;;;3.30;3.10;;;;;;;;;;5042996;28;20593;-77
2022/01/08 03:57:20;;;;;;;3.30;3.10;;;;;;;;;;5051643;28;20198;-77
2022/01/08 03:59:48;;;;;;;4.53;3.23;;;;;;;;;;5058762;28;20304;-77
2022/01/08 04:02:16;;;;;;;3.00;2.80;;;;;;;;;;5060520;28;20228;-77
2022/01/08 04:04:44;;;;;;;3.00;2.80;;;;;;;;;;5051037;28;20749;-78
2022/01/08 04:07:11;;;;;;;2.83;2.63;;;;;;;;;;5051842;28;20225;-77
2022/01/08 04:09:38;;;;;;;2.67;2.57;;;;;;;;;;5051132;28;20336;-77
2022/01/08 04:12:07;;;;;;;2.30;2.20;;;;;;;;;;5051683;28;20209;-77
2022/01/08 04:14:47;;;;;;;3.00;2.07;;;;;;;;;;5051379;28;20582;-77
2022/01/08 04:17:16;;;;;;;2.50;2.40;;;;;;;;;;5052172;28;20206;-77
2022/01/08 04:19:45;;;;;;;2.40;2.30;;;;;;;;;;5051331;28;20244;-77
2022/01/08 04:22:13;;;;;;;2.47;2.37;;;;;;;;;;5051469;28;20228;-77
2022/01/08 04:24:40;;;;;;;2.40;2.30;;;;;;;;;;5051021;28;20287;-78
2022/01/08 04:27:08;;;;;;;2.20;2.10;;;;;;;;;;5039125;28;20223;-77
2022/01/08 04:29:35;;;;;;;2.20;2.10;;;;;;;;;;5036637;28;20236;-77
2022/01/08 04:32:02;;;;;;;2.20;2.10;;;;;;;;;;5051515;28;20203;-77
2022/01/08 04:34:29;;;;;;;2.00;1.90;;;;;;;;;;5050603;28;20242;-77
2022/01/08 04:36:57;;;;;;;2.23;2.13;;;;;;;;;;5050474;28;20667;-77
2022/01/08 04:39:24;;;;;;;2.27;2.17;;;;;;;;;;5049124;28;20230;-77
2022/01/08 04:41:51;;;;;;;2.20;2.10;;;;;;;;;;5051043;28;20218;-77
2022/01/08 04:44:19;;;;;;;2.40;2.30;;;;;;;;;;5053349;28;20245;-77
2022/01/08 04:46:46;;;;;;;2.30;2.20;;;;;;;;;;5054910;28;20229;-78
2022/01/08 04:49:13;;;;;;;2.63;2.40;;;;;;;;;;5054231;28;20234;-77
2022/01/08 04:51:40;;;;;;;2.50;2.40;;;;;;;;;;5054831;28;20206;-77
2022/01/08 04:54:08;;;;;;;2.40;2.30;;;;;;;;;;5054189;28;20291;-78
2022/01/08 04:56:35;;;;;;;2.30;2.20;;;;;;;;;;5054451;28;20209;-77
2022/01/08 04:59:02;;;;;;;2.33;2.23;;;;;;;;;;5055471;28;20241;-77
2022/01/08 05:01:30;;;;;;;2.30;2.20;;;;;;;;;;5074308;28;20213;-79
2022/01/08 05:03:57;;;;;;;2.40;2.30;;;;;;;;;;5073914;28;20245;-77
2022/01/08 05:06:24;;;;;;;2.40;2.30;;;;;;;;;;5074303;28;20224;-77
2022/01/08 05:08:51;;;;;;;2.30;2.20;;;;;;;;;;5074002;28;21010;-78
2022/01/08 05:11:20;;;;;;;2.37;2.27;;;;;;;;;;5074528;28;20213;-78
2022/01/08 05:13:47;;;;;;;2.40;2.30;;;;;;;;;;5073704;28;20247;-77
2022/01/08 05:16:14;;;;;;;2.40;2.30;;;;;;;;;;5067346;28;20198;-77
2022/01/08 05:18:41;;;;;;;2.60;2.50;;;;;;;;;;5053665;28;20608;-77
2022/01/08 05:21:16;;;;;;;2.57;2.40;;;;;;;;;;5054114;28;20685;-77
2022/01/08 05:23:43;;;;;;;2.40;2.30;;;;;;;;;;5053396;28;20237;-77
2022/01/08 05:26:10;;;;;;;2.30;2.20;;;;;;;;;;5054160;28;20217;-77
2022/01/08 05:28:38;;;;;;;2.40;2.30;;;;;;;;;;5053339;28;20237;-77
2022/01/08 05:31:05;;;;;;;2.20;2.10;;;;;;;;;;5054406;28;20206;-77
2022/01/08 05:33:32;;;;;;;2.53;2.33;;;;;;;;;;5053327;28;20242;-77
2022/01/08 05:35:59;;;;;;;2.57;2.37;;;;;;;;;;5054115;28;20213;-78
2022/01/08 05:38:26;;;;;;;1.90;1.90;;;;;;;;;;5053567;28;20253;-77
2022/01/08 05:40:53;;;;;;;2.27;2.17;;;;;;;;;;5053980;28;20667;-77
2022/01/08 05:43:20;;;;;;;2.33;2.23;;;;;;;;;;5053428;28;20233;-77
2022/01/08 05:45:49;;;;;;;2.43;2.33;;;;;;;;;;5053175;28;20221;-76
2022/01/08 05:48:16;;;;;;;2.30;2.20;;;;;;;;;;5053421;28;20287;-76
2022/01/08 05:50:43;;;;;;;2.30;2.20;;;;;;;;;;5053540;28;20209;-77
2022/01/08 05:53:10;;;;;;;2.30;2.20;;;;;;;;;;5052996;28;20236;-77
2022/01/08 05:55:37;;;;;;;2.33;2.23;;;;;;;;;;5053336;28;20630;-77
2022/01/08 05:58:04;;;;;;;2.20;2.10;;;;;;;;;;5053250;28;20239;-77
2022/01/08 06:00:31;;;;;;;2.23;2.13;;;;;;;;;;5067078;28;20197;-76
2022/01/08 06:03:00;;;;;;;2.13;2.03;;;;;;;;;;5073092;28;20240;-77
2022/01/08 06:05:27;;;;;;;2.03;1.93;;;;;;;;;;5073814;28;20236;-76
2022/01/08 06:07:54;;;;;;;2.00;2.00;;;;;;;;;;5073134;28;20244;-77
2022/01/08 06:10:21;;;;;;;1.80;1.80;;;;;;;;;;5073723;28;20205;-76
2022/01/08 06:12:49;;;;;;;2.20;2.10;;;;;;;;;;5053836;28;20237;-77
2022/01/08 06:15:16;;;;;;;5.17;2.30;;;;;;;;;;5053439;28;20316;-76
2022/01/08 06:17:43;;;;;;;2.93;2.73;;;;;;;;;;5053479;28;20229;-76
2022/01/08 06:20:12;;;;;;;3.50;3.20;;;;;;;;;;5053859;28;20224;-76
2022/01/08 06:22:39;;;;;;;8.43;3.40;;;;;;;;;;5052601;28;20210;-77
2022/01/08 06:25:06;;;;;;;2.63;2.47;;;;;;;;;;5053327;28;20643;-76
2022/01/08 06:27:33;;;;;;;4.47;3.00;;;;;;;;;;5052825;28;20698;-76
2022/01/08 06:30:02;;;;;;;4.13;3.50;;;;;;;;;;5053529;28;20213;-76
2022/01/08 06:32:29;;;;;;;3.90;3.50;;;;;;;;;;5052873;28;20214;-76
2022/01/08 06:34:57;;;;;;;3.80;3.50;;;;;;;;;;5053116;28;20230;-76
2022/01/08 06:37:25;;;;;;;3.80;3.50;;;;;;;;;;5052748;28;20228;-76
2022/01/08 06:39:52;;;;;;;3.37;3.10;;;;;;;;;;5052982;28;20237;-76
2022/01/08 06:42:19;;;;;;;3.30;3.10;;;;;;;;;;5053109;28;20678;-79
2022/01/08 06:44:46;;;;;;;4.20;3.23;;;;;;;;;;5053238;28;20656;-78
2022/01/08 06:47:13;;;;;;;3.03;2.83;;;;;;;;;;5053271;28;20229;-81
2022/01/08 06:49:40;;;;;;;3.80;3.50;;;;;;;;;;5052088;28;20232;-79
2022/01/08 06:52:08;;;;;;;5.67;3.87;;;;;;;;;;5052425;28;20283;-81
2022/01/08 06:54:36;;;;;;;7.10;4.03;;;;;;;;;;5046594;28;20238;-80
2022/01/08 06:57:03;;;;;;;4.73;3.87;;;;;;;;;;5034877;28;20217;-79
2022/01/08 06:59:30;;;;;;;5.13;4.20;;;;;;;;;;5031792;28;20612;-79
2022/01/08 07:01:57;;;;;;;7.23;4.53;;;;;;;;;;5051075;28;20202;-79
2022/01/08 07:04:24;;;;;;;4.60;4.20;;;;;;;;;;5051460;28;20236;-79
2022/01/08 07:06:51;;;;;;;4.73;4.17;;;;;;;;;;5051736;28;20212;-80
2022/01/08 07:09:19;;;;;;;4.30;3.90;;;;;;;;;;5051573;28;20619;-77
2022/01/08 07:11:47;;;;;;;3.73;3.43;;;;;;;;;;5051851;28;20296;-77
2022/01/08 07:14:14;;;;;;;4.47;4.07;;;;;;;;;;5051406;28;20233;-80
2022/01/08 07:16:41;;;;;;;4.30;3.90;;;;;;;;;;5037587;28;20207;-78
2022/01/08 07:19:09;;;;;;;4.73;4.33;;;;;;;;;;5031521;28;20234;-78
2022/01/08 07:21:36;;;;;;;4.70;4.30;;;;;;;;;;5031671;28;20194;-79
2022/01/08 07:24:03;;;;;;;4.60;4.20;;;;;;;;;;5042177;28;20237;-78
2022/01/08 07:26:30;;;;;;;6.07;5.27;;;;;;;;;;5051697;28;20215;-78
2022/01/08 07:28:58;;;;;;;7.03;6.23;;;;;;;;;;5037245;28;20241;-78
2022/01/08 07:31:25;;;;;;;7.50;6.53;;;;;;;;;;5031806;28;20207;-78
2022/01/08 07:33:52;;;;;;;7.43;6.63;;;;;;;;;;5039732;28;20702;-78
2022/01/08 07:36:20;;;;;;;8.27;6.40;;;;;;;;;;5052467;28;20267;-80
2022/01/08 07:38:47;;;;;;;8.87;7.50;;;;;;;;;;5034570;28;20222;-79
2022/01/08 07:41:14;;;;;;;11.43;7.90;;;;;;;;;;5051088;28;20206;-78
2022/01/08 07:43:41;;;;;;;14.20;9.57;;;;;;;;;;5046724;28;20293;-79
2022/01/08 07:46:09;;;;;;;8.70;7.40;;;;;;;;;;5048812;28;20202;-79
2022/01/08 07:48:36;;;;;;;12.80;7.07;;;;;;;;;;5033142;28;20324;-79
2022/01/08 07:51:04;;;;;;;9.40;7.43;;;;;;;;;;5050612;28;20289;-79
2022/01/08 07:53:31;;;;;;;10.70;7.90;;;;;;;;;;5041867;28;20244;-78
2022/01/08 07:55:58;;;;;;;9.67;7.53;;;;;;;;;;5051104;28;20202;-78
2022/01/08 07:58:25;;;;;;;9.17;7.73;;;;;;;;;;5051124;28;20232;-79
2022/01/08 08:00:53;;;;;;;8.47;6.43;;;;;;;;;;5051687;28;20213;-80
2022/01/08 08:03:22;;;;;;;12.27;7.10;;;;;;;;;;5051298;28;20319;-80
2022/01/08 08:05:49;;;;;;;14.00;8.80;;;;;;;;;;5051471;28;20198;-80
2022/01/08 08:08:17;;;;;;;10.70;7.53;;;;;;;;;;5051332;28;20238;-80
2022/01/08 08:10:44;;;;;;;8.43;7.17;;;;;;;;;;5052108;28;20241;-81
2022/01/08 08:13:11;;;;;;;13.10;8.20;;;;;;;;;;5051867;28;20245;-79
2022/01/08 08:15:38;;;;;;;9.97;7.67;;;;;;;;;;5051218;28;20236;-79
2022/01/08 08:18:05;;;;;;;13.07;8.57;;;;;;;;;;5047482;28;20617;-80
2022/01/08 08:20:34;;;;;;;12.57;8.47;;;;;;;;;;5056454;28;20205;-79
2022/01/08 08:23:01;;;;;;;12.53;8.60;;;;;;;;;;5055114;28;20229;-79
2022/01/08 08:25:28;;;;;;;14.53;9.40;;;;;;;;;;5055813;28;20237;-80
2022/01/08 08:27:55;;;;;;;12.97;9.10;;;;;;;;;;5054172;28;20284;-79
2022/01/08 08:30:22;;;;;;;10.60;5.97;;;;;;;;;;5055540;28;20205;-81
2022/01/08 08:32:50;;;;;;;13.33;9.13;;;;;;;;;;5054169;28;20290;-79
2022/01/08 08:35:18;;;;;;;10.77;8.70;;;;;;;;;;5054695;28;20253;-80
2022/01/08 08:37:46;;;;;;;14.43;9.73;;;;;;;;;;5053919;28;20230;-80
2022/01/08 08:40:14;;;;;;;12.50;9.30;;;;;;;;;;5057076;28;20213;-79
2022/01/08 08:42:42;;;;;;;15.33;9.67;;;;;;;;;;5055462;28;20259;-79
2022/01/08 08:45:09;;;;;;;15.83;9.17;;;;;;;;;;5055250;28;20226;-80
2022/01/08 08:47:39;;;;;;;14.03;9.83;;;;;;;;;;5054268;28;20237;-79
2022/01/08 08:50:07;;;;;;;16.90;10.30;;;;;;;;;;5056147;28;20694;-79
2022/01/08 08:52:34;;;;;;;13.60;9.20;;;;;;;;;;5055177;28;20249;-78
2022/01/08 08:55:03;;;;;;;15.17;9.70;;;;;;;;;;5054776;28;20598;-78
2022/01/08 08:57:30;;;;;;;15.30;11.00;;;;;;;;;;5055770;28;20206;-79
2022/01/08 08:59:57;;;;;;;17.07;11.07;;;;;;;;;;5054207;28;20613;-79
2022/01/08 09:02:24;;;;;;;23.57;11.73;;;;;;;;;;5052636;28;20247;-79
2022/01/08 09:04:51;;;;;;;15.67;10.47;;;;;;;;;;5054387;28;20244;-78
2022/01/08 09:07:19;;;;;;;16.60;11.53;;;;;;;;;;5063040;28;20205;-79
2022/01/08 09:09:46;;;;;;;17.60;11.93;;;;;;;;;;5053107;28;20237;-78
2022/01/08 09:12:16;;;;;;;22.30;12.20;;;;;;;;;;5056760;28;20259;-78
2022/01/08 09:14:43;;;;;;;16.60;11.80;;;;;;;;;;5052283;28;20237;-79
2022/01/08 09:17:11;;;;;;;4.80;4.27;;;;;;;;;;5041425;28;20205;-80
2022/01/08 09:19:38;;;;;;;12.27;8.90;;;;;;;;;;5054715;28;20264;-80
2022/01/08 09:22:05;;;;;;;11.33;7.77;;;;;;;;;;5055031;28;20582;-78
2022/01/08 09:24:33;;;;;;;14.37;8.43;;;;;;;;;;5059593;28;20233;-81
2022/01/08 09:27:00;;;;;;;12.20;8.50;;;;;;;;;;5061890;28;20279;-79
2022/01/08 09:29:29;;;;;;;9.77;7.10;;;;;;;;;;5053182;28;20257;-80
2022/01/08 09:31:56;;;;;;;18.33;7.27;;;;;;;;;;5054668;28;20206;-79
2022/01/08 09:34:23;;;;;;;12.60;8.13;;;;;;;;;;5042223;28;20241;-80
2022/01/08 09:36:50;;;;;;;13.17;7.27;;;;;;;;;;5034021;28;20731;-79
2022/01/08 09:39:17;;;;;;;14.10;6.83;;;;;;;;;;5034241;28;20230;-79
2022/01/08 09:41:44;;;;;;;9.90;6.37;;;;;;;;;;5036931;28;20206;-78
2022/01/08 09:44:12;;;;;;;9.67;6.53;;;;;;;;;;5046270;28;20234;-78
2022/01/08 09:46:41;;;;;;;8.63;6.47;;;;;;;;;;5045820;28;20256;-78
2022/01/08 09:49:08;;;;;;;12.20;5.40;;;;;;;;;;5053852;28;20709;-79
2022/01/08 09:51:35;;;;;;;10.30;6.13;;;;;;;;;;5057078;28;20213;-80
2022/01/08 09:54:02;;;;;;;10.27;5.60;;;;;;;;;;5053800;28;20237;-79
2022/01/08 09:56:31;;;;;;;11.27;5.73;;;;;;;;;;5052869;28;20198;-78
2022/01/08 09:58:58;;;;;;;12.27;5.30;;;;;;;;;;5054084;28;20267;-80
2022/01/08 10:01:26;;;;;;;11.87;5.30;;;;;;;;;;5057775;28;20206;-82
2022/01/08 10:03:55;;;;;;;12.47;5.63;;;;;;;;;;5048852;28;20690;-80
2022/01/08 10:06:23;;;;;;;11.60;5.93;;;;;;;;;;5054423;28;20255;-79
2022/01/08 10:08:50;;;;;;;15.07;6.33;;;;;;;;;;5054644;28;20258;-79
2022/01/08 10:11:17;;;;;;;6.60;4.93;;;;;;;;;;5056092;28;20224;-81
2022/01/08 10:13:46;;;;;;;11.60;6.13;;;;;;;;;;5054866;28;20241;-79
2022/01/08 10:19:01;;;;;;;9.23;7.37;;;;;;;;;;5056356;28;20240;-80
2022/01/08 10:21:28;;;;;;;7.10;5.40;;;;;;;;;;5057180;28;20573;-79
2022/01/08 10:23:56;;;;;;;5.17;4.67;;;;;;;;;;5054156;28;20241;-79
2022/01/08 10:26:28;;;;;;;8.23;5.57;;;;;;;;;;5057066;28;20206;-79
2022/01/08 10:28:56;;;;;;;11.97;5.90;;;;;;;;;;5058670;28;20234;-80
2022/01/08 10:31:24;;;;;;;15.17;5.43;;;;;;;;;;5056799;28;20225;-80
2022/01/08 10:33:53;;;;;;;5.13;3.57;;;;;;;;;;5057549;28;20659;-80
2022/01/08 10:36:23;;;;;;;5.77;4.10;;;;;;;;;;5059048;28;20213;-81
2022/01/08 10:38:54;;;;;;;4.60;4.20;;;;;;;;;;5056021;28;20253;-80
2022/01/08 10:41:22;;;;;;;6.07;4.70;;;;;;;;;;5044497;28;20209;-78
2022/01/08 10:43:49;;;;;;;7.93;5.60;;;;;;;;;;5038083;28;20242;-80
2022/01/08 10:46:17;;;;;;;5.90;4.33;;;;;;;;;;5037617;28;20206;-79
2022/01/08 10:48:45;;;;;;;5.40;4.23;;;;;;;;;;5036934;28;20598;-79
2022/01/08 10:51:14;;;;;;;7.80;5.80;;;;;;;;;;5037763;28;20229;-80
2022/01/08 10:53:53;;;;;;;12.53;5.13;;;;;;;;;;5038325;28;20238;-79
2022/01/08 10:56:24;;;;;;;10.83;6.00;;;;;;;;;;5057643;28;20209;-79
2022/01/08 10:58:52;;;;;;;13.60;5.90;;;;;;;;;;5053222;28;20942;-79
2022/01/08 11:01:34;;;;;;;7.87;5.17;;;;;;;;;;5056078;28;20217;-80
2022/01/08 11:04:01;;;;;;;7.23;4.50;;;;;;;;;;5054786;28;20234;-79
2022/01/08 11:06:28;;;;;;;6.10;5.50;;;;;;;;;;5055790;28;20210;-79
2022/01/08 11:09:02;;;;;;;8.17;5.93;;;;;;;;;;5054866;28;20245;-80
2022/01/08 11:11:30;;;;;;;6.20;4.70;;;;;;;;;;5053312;28;20206;-79
2022/01/08 11:14:04;;;;;;;7.87;5.03;;;;;;;;;;5062770;28;20266;-80
2022/01/08 11:16:31;;;;;;;8.80;6.03;;;;;;;;;;5071847;28;20197;-79
2022/01/08 11:18:59;;;;;;;3.07;2.90;;;;;;;;;;5065897;28;20268;-79
2022/01/08 11:21:27;;;;;;;8.30;6.20;;;;;;;;;;5052414;28;20206;-79
2022/01/08 11:23:54;;;;;;;8.63;6.60;;;;;;;;;;5053895;28;20234;-79
2022/01/08 11:26:23;;;;;;;5.93;3.97;;;;;;;;;;5055826;28;20631;-80
2022/01/08 11:28:52;;;;;;;4.97;4.53;;;;;;;;;;5065646;28;20237;-79
2022/01/08 11:31:21;;;;;;;4.83;3.70;;;;;;;;;;5074313;28;20212;-79
2022/01/08 11:33:55;;;;;;;10.53;5.47;;;;;;;;;;5072790;28;20241;-79
2022/01/08 11:36:22;;;;;;;11.10;5.40;;;;;;;;;;5062634;28;20194;-80
2022/01/08 11:38:50;;;;;;;12.57;5.80;;;;;;;;;;5055581;28;20240;-79
2022/01/08 11:41:17;;;;;;;10.43;6.40;;;;;;;;;;5058658;28;20206;-79
2022/01/08 11:43:49;;;;;;;7.37;5.17;;;;;;;;;;5055231;28;20249;-79
2022/01/08 11:46:16;;;;;;;9.27;5.53;;;;;;;;;;5057336;28;20213;-78
2022/01/08 11:48:45;;;;;;;4.23;3.87;;;;;;;;;;5057897;28;20241;-79
2022/01/08 11:51:16;;;;;;;5.83;4.63;;;;;;;;;;5059870;28;20205;-79
2022/01/08 11:53:46;;;;;;;12.80;5.47;;;;;;;;;;5058626;28;20245;-79
2022/01/08 11:56:23;;;;;;;12.43;6.87;;;;;;;;;;5036590;28;20213;-79
2022/01/08 11:59:04;;;;;;;6.93;4.60;;;;;;;;;;5036535;28;20524;-79
2022/01/08 12:01:31;;;;;;;9.13;5.23;;;;;;;;;;5036828;28;20668;-79
2022/01/08 12:03:58;;;;;;;7.37;4.23;;;;;;;;;;5036706;28;20250;-79
2022/01/08 12:06:39;;;;;;;8.27;6.03;;;;;;;;;;5037339;28;20213;-80
2022/01/08 12:09:28;;;;;;;10.67;4.50;;;;;;;;;;5043102;28;20575;-79
2022/01/08 12:12:00;;;;;;;10.30;6.43;;;;;;;;;;5050461;28;20206;-79
2022/01/08 12:14:29;;;;;;;6.13;5.00;;;;;;;;;;5055282;28;20246;-79
2022/01/08 12:16:57;;;;;;;8.63;4.73;;;;;;;;;;5054461;28;20781;-79
2022/01/08 12:19:35;;;;;;;5.33;4.27;;;;;;;;;;5055342;28;20238;-79
2022/01/08 12:22:03;;;;;;;4.83;4.33;;;;;;;;;;5051309;28;20259;-79
2022/01/08 12:24:37;;;;;;;6.97;4.50;;;;;;;;;;5055733;28;20246;-79
2022/01/08 12:27:12;;;;;;;9.93;5.70;;;;;;;;;;5048521;28;20293;-80
2022/01/08 12:29:41;;;;;;;7.80;4.50;;;;;;;;;;5057526;28;20240;-80
2022/01/08 12:32:24;;;;;;;11.13;3.60;;;;;;;;;;5058149;28;20205;-79
2022/01/08 12:35:00;;;;;;;6.10;4.03;;;;;;;;;;5057174;28;20268;-80
2022/01/08 12:37:35;;;;;;;7.80;4.40;;;;;;;;;;5058616;28;20205;-79
2022/01/08 12:40:03;;;;;;;6.33;3.90;;;;;;;;;;5058547;28;20618;-79
2022/01/08 12:42:33;;;;;;;4.57;3.43;;;;;;;;;;5057166;28;20235;-79
2022/01/08 12:45:03;;;;;;;7.23;4.83;;;;;;;;;;5060309;28;20693;-79
2022/01/08 12:47:40;;;;;;;4.00;3.70;;;;;;;;;;5060839;28;20206;-80
2022/01/08 12:50:26;;;;;;;5.53;3.73;;;;;;;;;;5051942;28;20222;-79
2022/01/08 12:53:21;;;;;;;5.73;4.80;;;;;;;;;;5052746;28;20229;-79
2022/01/08 12:56:08;;;;;;;8.53;4.40;;;;;;;;;;5015579;28;20207;-80
2022/01/08 12:58:36;;;;;;;9.63;4.63;;;;;;;;;;5054281;28;20286;-82
2022/01/08 13:01:05;;;;;;;11.07;4.90;;;;;;;;;;5058192;28;20198;-80
2022/01/08 13:03:33;;;;;;;10.40;6.87;;;;;;;;;;5055090;28;20243;-80
2022/01/08 13:06:00;;;;;;;4.10;3.37;;;;;;;;;;5056796;28;20191;-79
2022/01/08 13:08:28;;;;;;;5.37;3.40;;;;;;;;;;5056224;28;20230;-79
2022/01/08 13:11:00;;;;;;;3.33;2.70;;;;;;;;;;5056887;28;20238;-79
2022/01/08 13:13:27;;;;;;;4.80;3.73;;;;;;;;;;5056906;28;20236;-79
2022/01/08 13:15:55;;;;;;;7.83;4.17;;;;;;;;;;5058598;28;20211;-79
2022/01/08 13:18:24;;;;;;;4.70;3.23;;;;;;;;;;5058145;28;20239;-79
2022/01/08 13:21:01;;;;;;;5.17;3.30;;;;;;;;;;5057291;28;20240;-79
2022/01/08 13:23:28;;;;;;;6.03;3.30;;;;;;;;;;5056154;28;20590;-80
2022/01/08 13:25:55;;;;;;;4.03;3.50;;;;;;;;;;5053093;28;20740;-79
2022/01/08 13:28:23;;;;;;;8.20;6.03;;;;;;;;;;5046429;28;20229;-79
2022/01/08 13:30:50;;;;;;;5.13;4.17;;;;;;;;;;5058252;28;20239;-80
2022/01/08 13:33:24;;;;;;;3.73;3.30;;;;;;;;;;5057267;28;20233;-79
2022/01/08 13:35:58;;;;;;;5.77;3.30;;;;;;;;;;5055848;28;20211;-79
2022/01/08 13:38:29;;;;;;;4.27;3.67;;;;;;;;;;5056580;28;20228;-80
2022/01/08 13:40:56;;;;;;;4.70;3.03;;;;;;;;;;5057015;28;20206;-80
2022/01/08 13:43:24;;;;;;;3.70;3.13;;;;;;;;;;5059880;28;20240;-80
2022/01/08 13:45:53;;;;;;;4.00;3.60;;;;;;;;;;5057836;28;20613;-79
2022/01/08 13:48:20;;;;;;;6.07;3.90;;;;;;;;;;5061029;28;20231;-82
2022/01/08 13:50:56;;;;;;;6.43;3.30;;;;;;;;;;5052990;28;20233;-81
2022/01/08 13:53:24;;;;;;;5.33;3.43;;;;;;;;;;5054660;28;20228;-82
2022/01/08 13:55:51;;;;;;;3.77;3.33;;;;;;;;;;5052911;28;20266;-81
2022/01/08 13:58:19;;;;;;;4.43;3.00;;;;;;;;;;5052871;28;20252;-80
2022/01/08 14:00:47;;;;;;;5.13;3.67;;;;;;;;;;5051990;28;20205;-82
2022/01/08 14:03:18;;;;;;;4.33;3.63;;;;;;;;;;5048762;28;20585;-83
2022/01/08 14:05:46;;;;;;;4.93;3.10;;;;;;;;;;5046781;28;20202;-81
2022/01/08 14:08:14;;;;;;;5.90;3.50;;;;;;;;;;5047701;28;20231;-82
2022/01/08 14:10:43;;;;;;;9.00;4.20;;;;;;;;;;5055017;28;20231;-81
2022/01/08 14:13:12;;;;;;;9.73;4.13;;;;;;;;;;5049700;28;20231;-81
2022/01/08 14:15:41;;;;;;;11.77;7.40;;;;;;;;;;5053049;28;20227;-82
2022/01/08 14:18:12;;;;;;;7.47;3.37;;;;;;;;;;5050156;28;20227;-81
2022/01/08 14:20:40;;;;;;;5.93;4.03;;;;;;;;;;5051280;28;20412;-81
2022/01/08 14:23:11;;;;;;;6.93;4.70;;;;;;;;;;5044721;28;20663;-81
2022/01/08 14:25:39;;;;;;;5.27;4.07;;;;;;;;;;5054168;28;20229;-81
2022/01/08 14:28:20;;;;;;;4.63;3.10;;;;;;;;;;5046843;28;20236;-81
2022/01/08 14:30:47;;;;;;;4.43;3.40;;;;;;;;;;5045136;28;20219;-81
2022/01/08 14:33:14;;;;;;;3.67;2.83;;;;;;;;;;5045903;28;20238;-80
2022/01/08 14:35:42;;;;;;;3.37;3.10;;;;;;;;;;5048213;28;20232;-81
2022/01/08 14:38:10;;;;;;;3.63;3.33;;;;;;;;;;5049185;28;20300;-81
2022/01/08 14:40:37;;;;;;;4.70;3.30;;;;;;;;;;5050853;28;20203;-81
2022/01/08 14:43:06;;;;;;;3.60;3.23;;;;;;;;;;5048632;28;20691;-81
2022/01/08 14:45:34;;;;;;;4.60;3.90;;;;;;;;;;5045638;28;20730;-79
2022/01/08 14:48:03;;;;;;;2.27;2.07;;;;;;;;;;5037493;28;20238;-80
2022/01/08 14:50:31;;;;;;;5.73;3.70;;;;;;;;;;5039085;28;20226;-80
2022/01/08 14:53:00;;;;;;;4.60;3.17;;;;;;;;;;5041155;28;20235;-81
2022/01/08 14:55:31;;;;;;;5.40;4.23;;;;;;;;;;5040881;28;20787;-80
2022/01/08 14:57:58;;;;;;;2.87;2.67;;;;;;;;;;5041555;28;20267;-80
2022/01/08 15:00:27;;;;;;;7.30;3.60;;;;;;;;;;5055467;28;20203;-79
2022/01/08 15:02:55;;;;;;;3.07;2.67;;;;;;;;;;5046892;28;20242;-81
2022/01/08 15:05:22;;;;;;;7.90;3.30;;;;;;;;;;5053858;28;20743;-80